createdAt,value
2023-07-14T00:00:57.185Z,1012.38
2023-07-14T00:01:57.240Z,1012.39
2023-07-14T00:02:57.212Z,1012.38
2023-07-14T00:03:57.202Z,1012.33
2023-07-14T00:04:57.140Z,1012.37
2023-07-14T00:05:57.132Z,1012.35
2023-07-14T00:06:57.132Z,1012.39
2023-07-14T00:07:57.109Z,1012.38
2023-07-14T00:08:57.149Z,1012.37
2023-07-14T00:09:57.107Z,1012.31
2023-07-14T00:10:57.068Z,1012.32
2023-07-14T00:11:57.061Z,1012.33
2023-07-14T00:12:57.059Z,1012.32
2023-07-14T00:13:57.064Z,1012.30
2023-07-14T00:14:57.028Z,1012.31
2023-07-14T00:15:57.036Z,1012.30
2023-07-14T00:16:57.218Z,1012.26
2023-07-14T00:17:57.031Z,1012.26
2023-07-14T00:18:57.041Z,1012.25
2023-07-14T00:19:56.974Z,1012.23
2023-07-14T00:20:56.961Z,1012.23
2023-07-14T00:21:56.953Z,1012.17
2023-07-14T00:22:57.038Z,1012.18
2023-07-14T00:23:56.942Z,1012.14
2023-07-14T00:24:56.910Z,1012.14
2023-07-14T00:25:56.946Z,1012.15
2023-07-14T00:26:56.947Z,1012.18
2023-07-14T00:27:56.893Z,1012.17
2023-07-14T00:28:56.932Z,1012.19
2023-07-14T00:29:56.863Z,1012.17
2023-07-14T00:30:56.846Z,1012.19
2023-07-14T00:31:56.868Z,1012.17
2023-07-14T00:32:56.881Z,1012.19
2023-07-14T00:33:56.842Z,1012.16
2023-07-14T00:34:56.830Z,1012.17
2023-07-14T00:35:56.793Z,1012.17
2023-07-14T00:36:56.784Z,1012.18
2023-07-14T00:37:56.776Z,1012.16
2023-07-14T00:38:56.813Z,1012.16
2023-07-14T00:39:56.746Z,1012.12
2023-07-14T00:40:56.752Z,1012.13
2023-07-14T00:41:56.760Z,1012.15
2023-07-14T00:42:56.715Z,1012.11
2023-07-14T00:43:56.740Z,1012.09
2023-07-14T00:44:56.733Z,1012.05
2023-07-14T00:45:56.739Z,1012.08
2023-07-14T00:46:56.674Z,1012.07
2023-07-14T00:47:56.696Z,1012.05
2023-07-14T00:48:56.665Z,1012.06
2023-07-14T00:49:56.640Z,1012.06
2023-07-14T00:50:56.675Z,1012.08
2023-07-14T00:51:56.606Z,1012.09
2023-07-14T00:52:56.595Z,1012.08
2023-07-14T00:53:56.619Z,1012.10
2023-07-14T00:54:56.587Z,1012.10
2023-07-14T00:55:56.594Z,1012.08
2023-07-14T00:56:56.560Z,1012.09
2023-07-14T00:57:56.550Z,1012.09
2023-07-14T00:58:56.534Z,1012.14
2023-07-14T00:59:56.559Z,1012.10
2023-07-14T01:00:56.518Z,1012.11
2023-07-14T01:01:56.554Z,1012.15
2023-07-14T01:02:56.545Z,1012.17
2023-07-14T01:03:56.908Z,1012.16
2023-07-14T01:04:56.471Z,1012.11
2023-07-14T01:05:56.467Z,1012.10
2023-07-14T01:06:56.461Z,1012.12
2023-07-14T01:07:56.480Z,1012.12
2023-07-14T01:08:56.439Z,1012.12
2023-07-14T01:09:56.406Z,1012.10
2023-07-14T01:10:56.414Z,1012.16
2023-07-14T01:11:56.383Z,1012.12
2023-07-14T01:12:56.380Z,1012.09
2023-07-14T01:13:56.403Z,1012.10
2023-07-14T01:14:56.344Z,1012.11
2023-07-14T01:15:56.426Z,1012.11
2023-07-14T01:16:56.328Z,1012.08
2023-07-14T01:17:56.345Z,1012.09
2023-07-14T01:18:56.310Z,1012.08
2023-07-14T01:19:56.357Z,1012.12
2023-07-14T01:20:56.307Z,1012.12
2023-07-14T01:21:56.263Z,1012.11
2023-07-14T01:22:56.338Z,1012.09
2023-07-14T01:23:56.262Z,1012.12
2023-07-14T01:24:56.226Z,1012.12
2023-07-14T01:25:56.239Z,1012.10
2023-07-14T01:26:56.211Z,1012.11
2023-07-14T01:27:56.209Z,1012.11
2023-07-14T01:28:56.202Z,1012.15
2023-07-14T01:29:56.171Z,1012.17
2023-07-14T01:30:56.197Z,1012.21
2023-07-14T01:31:56.179Z,1012.21
2023-07-14T01:32:56.184Z,1012.23
2023-07-14T01:33:56.182Z,1012.23
2023-07-14T01:34:56.133Z,1012.25
2023-07-14T01:35:56.127Z,1012.26
2023-07-14T01:36:56.106Z,1012.24
2023-07-14T01:37:56.081Z,1012.25
2023-07-14T01:38:56.109Z,1012.22
2023-07-14T01:39:56.067Z,1012.23
2023-07-14T01:40:56.046Z,1012.19
2023-07-14T01:41:56.041Z,1012.15
2023-07-14T01:42:56.033Z,1012.16
2023-07-14T01:43:56.032Z,1012.16
2023-07-14T01:44:55.996Z,1012.15
2023-07-14T01:45:56.002Z,1012.14
2023-07-14T01:46:56.053Z,1012.15
2023-07-14T01:47:56.077Z,1012.11
2023-07-14T01:48:55.967Z,1012.16
2023-07-14T01:49:55.946Z,1012.14
2023-07-14T01:50:55.935Z,1012.15
2023-07-14T01:51:55.940Z,1012.13
2023-07-14T01:52:55.909Z,1012.10
2023-07-14T01:53:55.910Z,1012.08
2023-07-14T01:54:55.911Z,1012.09
2023-07-14T01:55:55.885Z,1012.10
2023-07-14T01:56:55.911Z,1012.09
2023-07-14T01:57:55.880Z,1012.07
2023-07-14T01:58:55.862Z,1012.08
2023-07-14T01:59:55.906Z,1012.07
2023-07-14T02:00:55.850Z,1012.09
2023-07-14T02:01:55.912Z,1012.10
2023-07-14T02:02:55.928Z,1012.13
2023-07-14T02:03:55.784Z,1012.10
2023-07-14T02:04:55.788Z,1012.07
2023-07-14T02:05:55.774Z,1012.09
2023-07-14T02:06:55.771Z,1012.12
2023-07-14T02:07:55.742Z,1012.09
2023-07-14T02:08:55.749Z,1012.08
2023-07-14T02:09:55.719Z,1012.11
2023-07-14T02:10:55.726Z,1012.05
2023-07-14T02:11:55.689Z,1012.06
2023-07-14T02:12:55.678Z,1012.04
2023-07-14T02:13:55.700Z,1012.01
2023-07-14T02:14:55.695Z,1012.03
2023-07-14T02:15:55.685Z,1012.03
2023-07-14T02:16:55.704Z,1012.02
2023-07-14T02:17:55.690Z,1012.05
2023-07-14T02:18:55.620Z,1012.05
2023-07-14T02:19:55.605Z,1012.02
2023-07-14T02:20:55.610Z,1012.02
2023-07-14T02:21:55.594Z,1012.01
2023-07-14T02:22:55.730Z,1012.02
2023-07-14T02:23:55.575Z,1012.01
2023-07-14T02:24:55.537Z,1012.00
2023-07-14T02:25:55.542Z,1012.01
2023-07-14T02:26:55.557Z,1012.05
2023-07-14T02:27:55.510Z,1012.00
2023-07-14T02:28:55.509Z,1012.02
2023-07-14T02:29:55.493Z,1011.98
2023-07-14T02:30:55.508Z,1012.01
2023-07-14T02:31:55.485Z,1012.00
2023-07-14T02:32:55.485Z,1012.01
2023-07-14T02:33:55.480Z,1012.01
2023-07-14T02:34:55.433Z,1012.00
2023-07-14T02:35:55.418Z,1011.97
2023-07-14T02:36:55.416Z,1012.01
2023-07-14T02:37:55.394Z,1011.98
2023-07-14T02:38:55.417Z,1011.98
2023-07-14T02:39:55.412Z,1011.99
2023-07-14T02:40:55.369Z,1012.02
2023-07-14T02:41:55.351Z,1012.01
2023-07-14T02:42:55.362Z,1011.96
2023-07-14T02:43:55.437Z,1011.98
2023-07-14T02:44:55.320Z,1011.98
2023-07-14T02:45:55.317Z,1011.97
2023-07-14T02:46:55.360Z,1012.01
2023-07-14T02:47:55.340Z,1011.97
2023-07-14T02:48:55.291Z,1012.03
2023-07-14T02:49:55.279Z,1011.99
2023-07-14T02:50:55.248Z,1012.02
2023-07-14T02:51:55.248Z,1012.00
2023-07-14T02:52:55.254Z,1012.03
2023-07-14T02:53:55.269Z,1012.01
2023-07-14T02:54:55.217Z,1011.97
2023-07-14T02:55:55.194Z,1011.99
2023-07-14T02:56:55.197Z,1011.97
2023-07-14T02:57:55.215Z,1011.99
2023-07-14T02:58:55.270Z,1012.00
2023-07-14T02:59:55.149Z,1011.95
2023-07-14T03:00:55.175Z,1011.95
2023-07-14T03:01:55.236Z,1011.92
2023-07-14T03:02:55.283Z,1011.92
2023-07-14T03:03:55.154Z,1011.97
2023-07-14T03:04:55.111Z,1011.93
2023-07-14T03:05:55.086Z,1011.92
2023-07-14T03:06:55.074Z,1011.93
2023-07-14T03:07:55.095Z,1011.93
2023-07-14T03:08:55.079Z,1011.92
2023-07-14T03:09:55.045Z,1011.95
2023-07-14T03:10:55.040Z,1011.93
2023-07-14T03:11:55.024Z,1011.92
2023-07-14T03:12:55.018Z,1011.99
2023-07-14T03:13:55.003Z,1011.98
2023-07-14T03:14:55.000Z,1011.99
2023-07-14T03:15:55.005Z,1011.99
2023-07-14T03:16:55.027Z,1012.01
2023-07-14T03:17:54.985Z,1012.02
2023-07-14T03:18:55.000Z,1012.05
2023-07-14T03:19:54.928Z,1012.03
2023-07-14T03:20:54.912Z,1012.06
2023-07-14T03:21:54.902Z,1012.03
2023-07-14T03:22:54.982Z,1012.07
2023-07-14T03:23:54.905Z,1012.03
2023-07-14T03:24:54.882Z,1011.98
2023-07-14T03:25:54.860Z,1011.97
2023-07-14T03:26:54.853Z,1011.96
2023-07-14T03:27:54.858Z,1011.95
2023-07-14T03:28:54.857Z,1011.92
2023-07-14T03:29:54.815Z,1011.92
2023-07-14T03:30:54.837Z,1011.91
2023-07-14T03:31:54.841Z,1011.94
2023-07-14T03:32:54.815Z,1011.91
2023-07-14T03:33:54.781Z,1011.88
2023-07-14T03:34:54.771Z,1011.87
2023-07-14T03:35:54.752Z,1011.87
2023-07-14T03:36:54.748Z,1011.85
2023-07-14T03:37:54.722Z,1011.83
2023-07-14T03:38:54.721Z,1011.86
2023-07-14T03:39:54.709Z,1011.86
2023-07-14T03:40:54.690Z,1011.86
2023-07-14T03:41:54.689Z,1011.85
2023-07-14T03:42:54.676Z,1011.82
2023-07-14T03:43:54.666Z,1011.82
2023-07-14T03:44:54.656Z,1011.83
2023-07-14T03:45:54.653Z,1011.81
2023-07-14T03:46:54.639Z,1011.83
2023-07-14T03:47:54.631Z,1011.83
2023-07-14T03:48:54.648Z,1011.88
2023-07-14T03:49:54.580Z,1011.83
2023-07-14T03:50:54.581Z,1011.89
2023-07-14T03:51:54.563Z,1011.83
2023-07-14T03:52:54.552Z,1011.89
2023-07-14T03:53:54.556Z,1011.84
2023-07-14T03:54:54.533Z,1011.80
2023-07-14T03:55:54.523Z,1011.84
2023-07-14T03:56:54.534Z,1011.82
2023-07-14T03:58:55.493Z,1011.84
2023-07-14T03:59:54.478Z,1011.79
2023-07-14T04:00:54.459Z,1011.84
2023-07-14T04:01:54.493Z,1011.82
2023-07-14T04:02:54.539Z,1011.80
2023-07-14T04:03:54.489Z,1011.84
2023-07-14T04:04:54.415Z,1011.82
2023-07-14T04:05:54.406Z,1011.83
2023-07-14T04:06:54.394Z,1011.79
2023-07-14T04:07:54.399Z,1011.78
2023-07-14T04:08:54.379Z,1011.77
2023-07-14T04:09:54.357Z,1011.78
2023-07-14T04:10:54.355Z,1011.77
2023-07-14T04:11:54.336Z,1011.77
2023-07-14T04:12:54.366Z,1011.78
2023-07-14T04:13:54.320Z,1011.80
2023-07-14T04:14:54.316Z,1011.82
2023-07-14T04:15:54.321Z,1011.82
2023-07-14T04:16:54.467Z,1011.83
2023-07-14T04:17:54.323Z,1011.82
2023-07-14T04:18:54.325Z,1011.82
2023-07-14T04:19:54.249Z,1011.84
2023-07-14T04:20:54.233Z,1011.81
2023-07-14T04:21:54.219Z,1011.80
2023-07-14T04:22:54.377Z,1011.79
2023-07-14T04:23:54.302Z,1011.78
2023-07-14T04:24:54.205Z,1011.78
2023-07-14T04:25:54.186Z,1011.79
2023-07-14T04:26:54.165Z,1011.75
2023-07-14T04:27:54.191Z,1011.77
2023-07-14T04:28:54.171Z,1011.76
2023-07-14T04:29:54.173Z,1011.77
2023-07-14T04:30:54.142Z,1011.76
2023-07-14T04:31:54.212Z,1011.76
2023-07-14T04:32:54.189Z,1011.71
2023-07-14T04:33:54.105Z,1011.69
2023-07-14T04:34:54.110Z,1011.65
2023-07-14T04:35:54.070Z,1011.67
2023-07-14T04:36:54.059Z,1011.67
2023-07-14T04:37:54.049Z,1011.69
2023-07-14T04:38:54.027Z,1011.72
2023-07-14T04:39:54.012Z,1011.74
2023-07-14T04:40:54.002Z,1011.73
2023-07-14T04:41:53.998Z,1011.74
2023-07-14T04:42:54.015Z,1011.71
2023-07-14T04:43:53.983Z,1011.75
2023-07-14T04:44:53.972Z,1011.69
2023-07-14T04:45:53.992Z,1011.70
2023-07-14T04:46:53.952Z,1011.67
2023-07-14T04:47:53.937Z,1011.68
2023-07-14T04:48:53.933Z,1011.65
2023-07-14T04:49:53.912Z,1011.65
2023-07-14T04:50:53.915Z,1011.65
2023-07-14T04:51:53.890Z,1011.70
2023-07-14T04:52:53.890Z,1011.67
2023-07-14T04:53:53.874Z,1011.65
2023-07-14T04:54:53.844Z,1011.58
2023-07-14T04:55:53.830Z,1011.59
2023-07-14T04:56:53.825Z,1011.60
2023-07-14T04:57:53.812Z,1011.59
2023-07-14T04:58:53.821Z,1011.59
2023-07-14T04:59:53.787Z,1011.58
2023-07-14T05:00:53.900Z,1011.59
2023-07-14T05:01:53.779Z,1011.61
2023-07-14T05:02:53.829Z,1011.64
2023-07-14T05:03:53.796Z,1011.66
2023-07-14T05:05:01.154Z,1011.66
2023-07-14T05:05:54.728Z,1011.67
2023-07-14T05:06:53.747Z,1011.65
2023-07-14T05:07:53.698Z,1011.62
2023-07-14T05:08:53.708Z,1011.63
2023-07-14T05:09:53.694Z,1011.61
2023-07-14T05:10:53.666Z,1011.58
2023-07-14T05:11:53.681Z,1011.56
2023-07-14T05:12:53.679Z,1011.58
2023-07-14T05:13:53.644Z,1011.60
2023-07-14T05:14:53.621Z,1011.58
2023-07-14T05:15:53.689Z,1011.57
2023-07-14T05:16:53.601Z,1011.51
2023-07-14T05:17:53.639Z,1011.53
2023-07-14T05:18:53.589Z,1011.48
2023-07-14T05:19:53.561Z,1011.51
2023-07-14T05:20:53.570Z,1011.51
2023-07-14T05:21:53.543Z,1011.47
2023-07-14T05:22:53.606Z,1011.49
2023-07-14T05:23:53.536Z,1011.49
2023-07-14T05:24:53.516Z,1011.52
2023-07-14T05:25:53.500Z,1011.53
2023-07-14T05:26:53.498Z,1011.53
2023-07-14T05:27:53.510Z,1011.56
2023-07-14T05:28:53.501Z,1011.54
2023-07-14T05:29:53.450Z,1011.54
2023-07-14T05:30:53.478Z,1011.51
2023-07-14T05:31:53.445Z,1011.54
2023-07-14T05:32:53.519Z,1011.55
2023-07-14T05:33:53.436Z,1011.54
2023-07-14T05:34:53.408Z,1011.55
2023-07-14T05:35:53.394Z,1011.48
2023-07-14T05:36:53.379Z,1011.49
2023-07-14T05:37:53.366Z,1011.49
2023-07-14T05:38:53.393Z,1011.47
2023-07-14T05:39:53.334Z,1011.47
2023-07-14T05:40:58.319Z,1011.49
2023-07-14T05:41:54.319Z,1011.46
2023-07-14T05:42:53.308Z,1011.49
2023-07-14T05:43:53.418Z,1011.46
2023-07-14T05:44:53.279Z,1011.48
2023-07-14T05:45:53.294Z,1011.46
2023-07-14T05:46:53.291Z,1011.49
2023-07-14T05:47:53.291Z,1011.45
2023-07-14T05:48:53.257Z,1011.49
2023-07-14T05:49:53.238Z,1011.50
2023-07-14T05:50:53.218Z,1011.47
2023-07-14T05:51:53.205Z,1011.50
2023-07-14T05:52:53.193Z,1011.48
2023-07-14T05:53:53.199Z,1011.49
2023-07-14T05:54:53.196Z,1011.47
2023-07-14T05:55:53.186Z,1011.48
2023-07-14T05:56:53.151Z,1011.47
2023-07-14T05:57:53.148Z,1011.48
2023-07-14T05:58:53.149Z,1011.46
2023-07-14T05:59:53.109Z,1011.43
2023-07-14T06:00:53.137Z,1011.43
2023-07-14T06:01:53.089Z,1011.45
2023-07-14T06:02:53.117Z,1011.44
2023-07-14T06:03:53.128Z,1011.44
2023-07-14T06:04:53.089Z,1011.43
2023-07-14T06:05:53.042Z,1011.43
2023-07-14T06:06:53.038Z,1011.44
2023-07-14T06:07:53.014Z,1011.45
2023-07-14T06:08:53.038Z,1011.44
2023-07-14T06:09:52.992Z,1011.45
2023-07-14T06:10:53.115Z,1011.48
2023-07-14T06:11:52.972Z,1011.51
2023-07-14T06:12:52.960Z,1011.44
2023-07-14T06:13:52.986Z,1011.49
2023-07-14T06:14:52.944Z,1011.42
2023-07-14T06:15:52.924Z,1011.44
2023-07-14T06:16:52.955Z,1011.43
2023-07-14T06:17:52.962Z,1011.45
2023-07-14T06:18:52.914Z,1011.43
2023-07-14T06:19:52.898Z,1011.41
2023-07-14T06:20:52.892Z,1011.44
2023-07-14T06:21:52.855Z,1011.43
2023-07-14T06:22:52.973Z,1011.47
2023-07-14T06:23:52.847Z,1011.44
2023-07-14T06:24:52.827Z,1011.42
2023-07-14T06:25:52.831Z,1011.41
2023-07-14T06:26:52.912Z,1011.40
2023-07-14T06:27:52.800Z,1011.35
2023-07-14T06:28:52.780Z,1011.33
2023-07-14T06:29:52.768Z,1011.34
2023-07-14T06:30:52.801Z,1011.36
2023-07-14T06:31:52.764Z,1011.29
2023-07-14T06:32:52.820Z,1011.30
2023-07-14T06:33:52.720Z,1011.26
2023-07-14T06:34:52.712Z,1011.25
2023-07-14T06:35:52.707Z,1011.21
2023-07-14T06:36:52.721Z,1011.20
2023-07-14T06:37:52.691Z,1011.22
2023-07-14T06:38:52.674Z,1011.13
2023-07-14T06:39:52.668Z,1011.12
2023-07-14T06:40:52.657Z,1011.11
2023-07-14T06:41:52.671Z,1011.11
2023-07-14T06:42:52.673Z,1011.07
2023-07-14T06:43:52.633Z,1011.07
2023-07-14T06:44:52.615Z,1011.04
2023-07-14T06:45:52.592Z,1011.06
2023-07-14T06:46:52.626Z,1011.09
2023-07-14T06:47:52.649Z,1011.06
2023-07-14T06:48:52.587Z,1011.08
2023-07-14T06:49:52.618Z,1011.12
2023-07-14T06:50:52.541Z,1011.15
2023-07-14T06:51:52.524Z,1011.12
2023-07-14T06:52:52.540Z,1011.13
2023-07-14T06:53:52.499Z,1011.09
2023-07-14T06:54:52.508Z,1011.10
2023-07-14T06:55:52.482Z,1011.15
2023-07-14T06:56:52.468Z,1011.14
2023-07-14T06:57:52.497Z,1011.07
2023-07-14T06:58:52.496Z,1011.10
2023-07-14T06:59:52.438Z,1011.09
2023-07-14T07:00:52.423Z,1011.04
2023-07-14T07:01:52.457Z,1011.08
2023-07-14T07:02:54.386Z,1011.06
2023-07-14T07:03:55.408Z,1011.01
2023-07-14T07:04:52.380Z,1011.01
2023-07-14T07:05:52.521Z,1010.96
2023-07-14T07:06:52.373Z,1010.96
2023-07-14T07:07:52.362Z,1010.98
2023-07-14T07:08:52.347Z,1010.92
2023-07-14T07:09:52.341Z,1010.99
2023-07-14T07:10:52.307Z,1011.00
2023-07-14T07:11:52.294Z,1011.03
2023-07-14T07:12:52.305Z,1010.98
2023-07-14T07:13:52.275Z,1010.94
2023-07-14T07:14:52.347Z,1010.91
2023-07-14T07:15:53.867Z,1011.11
2023-07-14T07:16:52.262Z,1011.18
2023-07-14T07:17:52.276Z,1011.18
2023-07-14T07:18:52.218Z,1011.23
2023-07-14T07:19:52.242Z,1011.20
2023-07-14T07:20:54.428Z,1011.23
2023-07-14T07:21:52.188Z,1011.22
2023-07-14T07:22:52.274Z,1011.21
2023-07-14T07:23:52.244Z,1011.20
2023-07-14T07:24:52.188Z,1011.18
2023-07-14T07:25:52.151Z,1011.13
2023-07-14T07:26:52.153Z,1011.04
2023-07-14T07:27:52.217Z,1011.04
2023-07-14T07:28:52.122Z,1011.09
2023-07-14T07:29:52.135Z,1011.07
2023-07-14T07:30:52.161Z,1011.08
2023-07-14T07:31:53.480Z,1011.04
2023-07-14T07:32:52.099Z,1011.06
2023-07-14T07:33:52.054Z,1011.10
2023-07-14T07:34:52.094Z,1011.09
2023-07-14T07:35:52.047Z,1011.00
2023-07-14T07:36:52.048Z,1010.96
2023-07-14T07:37:52.958Z,1010.93
2023-07-14T07:38:52.003Z,1010.90
2023-07-14T07:39:51.996Z,1010.92
2023-07-14T07:40:51.977Z,1010.93
2023-07-14T07:41:51.970Z,1010.86
2023-07-14T07:42:52.050Z,1010.87
2023-07-14T07:43:51.959Z,1010.90
2023-07-14T07:44:51.958Z,1010.90
2023-07-14T07:45:51.978Z,1010.84
2023-07-14T07:46:51.973Z,1010.75
2023-07-14T07:47:51.908Z,1010.72
2023-07-14T07:48:51.917Z,1010.77
2023-07-14T07:49:51.913Z,1010.83
2023-07-14T07:50:51.954Z,1010.78
2023-07-14T07:51:51.875Z,1010.85
2023-07-14T07:52:51.850Z,1010.89
2023-07-14T07:53:51.838Z,1010.93
2023-07-14T07:54:51.850Z,1010.93
2023-07-14T07:55:51.824Z,1010.93
2023-07-14T07:56:51.807Z,1010.86
2023-07-14T07:57:51.794Z,1010.85
2023-07-14T07:58:51.796Z,1010.79
2023-07-14T07:59:51.801Z,1010.77
2023-07-14T08:00:51.760Z,1010.78
2023-07-14T08:01:51.818Z,1010.66
2023-07-14T08:02:51.809Z,1010.70
2023-07-14T08:03:51.910Z,1010.61
2023-07-14T08:04:51.748Z,1010.56
2023-07-14T08:05:51.754Z,1010.56
2023-07-14T08:06:51.717Z,1010.47
2023-07-14T08:07:51.714Z,1010.52
2023-07-14T08:08:51.687Z,1010.47
2023-07-14T08:09:51.693Z,1010.46
2023-07-14T08:10:51.689Z,1010.50
2023-07-14T08:11:51.679Z,1010.51
2023-07-14T08:12:51.636Z,1010.52
2023-07-14T08:13:51.626Z,1010.53
2023-07-14T08:14:51.635Z,1010.51
2023-07-14T08:15:52.741Z,1010.48
2023-07-14T08:16:51.716Z,1010.48
2023-07-14T08:17:51.592Z,1010.42
2023-07-14T08:18:51.591Z,1010.43
2023-07-14T08:19:51.575Z,1010.39
2023-07-14T08:20:51.549Z,1010.33
2023-07-14T08:21:51.574Z,1010.37
2023-07-14T08:22:51.576Z,1010.34
2023-07-14T08:23:51.514Z,1010.36
2023-07-14T08:24:51.512Z,1010.33
2023-07-14T08:25:51.492Z,1010.36
2023-07-14T08:26:51.501Z,1010.41
2023-07-14T08:27:51.495Z,1010.44
2023-07-14T08:28:51.461Z,1010.51
2023-07-14T08:29:51.454Z,1010.46
2023-07-14T08:30:51.440Z,1010.39
2023-07-14T08:31:51.518Z,1010.36
2023-07-14T08:32:51.457Z,1010.33
2023-07-14T08:33:51.418Z,1010.32
2023-07-14T08:34:51.489Z,1010.29
2023-07-14T08:35:51.384Z,1010.30
2023-07-14T08:36:51.388Z,1010.37
2023-07-14T08:37:51.359Z,1010.42
2023-07-14T08:38:51.367Z,1010.44
2023-07-14T08:39:51.344Z,1010.56
2023-07-14T08:40:51.339Z,1010.35
2023-07-14T08:41:51.354Z,1010.44
2023-07-14T08:42:51.312Z,1010.50
2023-07-14T08:43:51.310Z,1010.38
2023-07-14T08:44:51.292Z,1010.51
2023-07-14T08:45:51.304Z,1010.58
2023-07-14T08:46:51.283Z,1010.50
2023-07-14T08:47:51.356Z,1010.48
2023-07-14T08:48:51.242Z,1010.50
2023-07-14T08:49:51.258Z,1010.45
2023-07-14T08:50:51.269Z,1010.33
2023-07-14T08:51:51.279Z,1010.25
2023-07-14T08:52:51.205Z,1010.39
2023-07-14T08:53:51.242Z,1010.45
2023-07-14T08:54:51.191Z,1010.37
2023-07-14T08:55:51.188Z,1010.34
2023-07-14T08:56:51.160Z,1010.27
2023-07-14T08:57:51.146Z,1010.18
2023-07-14T08:58:51.151Z,1010.22
2023-07-14T08:59:51.130Z,1010.20
2023-07-14T09:00:51.173Z,1010.22
2023-07-14T09:01:51.164Z,1010.14
2023-07-14T09:02:51.127Z,1010.13
2023-07-14T09:03:51.822Z,1010.20
2023-07-14T09:04:51.185Z,1010.19
2023-07-14T09:05:51.080Z,1010.20
2023-07-14T09:06:51.065Z,1010.19
2023-07-14T09:07:51.041Z,1010.12
2023-07-14T09:08:51.031Z,1010.14
2023-07-14T09:09:51.042Z,1010.23
2023-07-14T09:10:51.005Z,1010.16
2023-07-14T09:11:51.032Z,1010.09
2023-07-14T09:12:50.989Z,1010.12
2023-07-14T09:13:50.980Z,1010.10
2023-07-14T09:14:50.960Z,1010.07
2023-07-14T09:15:50.994Z,1010.09
2023-07-14T09:16:51.009Z,1010.04
2023-07-14T09:17:51.089Z,1010.04
2023-07-14T09:18:50.959Z,1010.06
2023-07-14T09:19:50.909Z,1010.04
2023-07-14T09:20:50.909Z,1010.01
2023-07-14T09:21:50.949Z,1009.98
2023-07-14T09:22:50.953Z,1009.96
2023-07-14T09:23:50.876Z,1009.92
2023-07-14T09:24:50.876Z,1009.93
2023-07-14T09:25:50.841Z,1009.92
2023-07-14T09:26:50.912Z,1009.90
2023-07-14T09:27:50.839Z,1009.88
2023-07-14T09:28:50.815Z,1009.92
2023-07-14T09:29:50.815Z,1009.90
2023-07-14T09:30:50.895Z,1009.92
2023-07-14T09:31:50.916Z,1009.91
2023-07-14T09:32:50.877Z,1009.92
2023-07-14T09:33:50.756Z,1009.93
2023-07-14T09:34:50.748Z,1009.91
2023-07-14T09:35:50.748Z,1009.96
2023-07-14T09:36:50.734Z,1009.92
2023-07-14T09:37:50.708Z,1009.93
2023-07-14T09:38:50.819Z,1009.92
2023-07-14T09:39:50.691Z,1009.89
2023-07-14T09:40:50.685Z,1009.86
2023-07-14T09:41:50.729Z,1009.85
2023-07-14T09:42:50.662Z,1009.88
2023-07-14T09:43:50.655Z,1009.85
2023-07-14T09:44:50.651Z,1009.83
2023-07-14T09:45:50.642Z,1009.80
2023-07-14T09:46:50.706Z,1009.84
2023-07-14T09:47:50.646Z,1009.83
2023-07-14T09:48:50.603Z,1009.78
2023-07-14T09:49:50.606Z,1009.75
2023-07-14T09:50:50.569Z,1009.72
2023-07-14T09:51:50.604Z,1009.73
2023-07-14T09:52:50.565Z,1009.73
2023-07-14T09:53:51.938Z,1009.70
2023-07-14T09:54:50.550Z,1009.72
2023-07-14T09:55:50.515Z,1009.70
2023-07-14T09:56:50.513Z,1009.67
2023-07-14T09:58:00.958Z,1009.69
2023-07-14T09:58:51.477Z,1009.63
2023-07-14T09:59:50.466Z,1009.64
2023-07-14T10:00:50.583Z,1009.60
2023-07-14T10:01:50.467Z,1009.63
2023-07-14T10:02:50.479Z,1009.56
2023-07-14T10:03:50.451Z,1009.55
2023-07-14T10:04:50.429Z,1009.53
2023-07-14T10:05:50.402Z,1009.54
2023-07-14T10:06:50.391Z,1009.48
2023-07-14T10:07:50.396Z,1009.46
2023-07-14T10:08:50.391Z,1009.44
2023-07-14T10:09:50.361Z,1009.43
2023-07-14T10:10:50.367Z,1009.39
2023-07-14T10:11:51.103Z,1009.39
2023-07-14T10:12:50.346Z,1009.42
2023-07-14T10:13:50.315Z,1009.34
2023-07-14T10:14:50.301Z,1009.28
2023-07-14T10:15:50.290Z,1009.28
2023-07-14T10:16:50.308Z,1009.25
2023-07-14T10:17:50.333Z,1009.31
2023-07-14T10:18:50.281Z,1009.23
2023-07-14T10:19:50.246Z,1009.31
2023-07-14T10:20:50.255Z,1009.22
2023-07-14T10:21:50.242Z,1009.20
2023-07-14T10:22:50.263Z,1009.18
2023-07-14T10:23:50.216Z,1009.17
2023-07-14T10:24:50.201Z,1009.18
2023-07-14T10:25:50.183Z,1009.17
2023-07-14T10:26:50.216Z,1009.14
2023-07-14T10:27:50.165Z,1009.08
2023-07-14T10:28:50.148Z,1009.12
2023-07-14T10:29:50.158Z,1009.11
2023-07-14T10:30:50.156Z,1009.05
2023-07-14T10:31:50.189Z,1008.97
2023-07-14T10:32:50.118Z,1008.95
2023-07-14T10:33:50.129Z,1008.85
2023-07-14T10:34:50.097Z,1008.83
2023-07-14T10:35:50.077Z,1008.88
2023-07-14T10:36:50.079Z,1008.94
2023-07-14T10:37:50.052Z,1008.94
2023-07-14T10:38:50.053Z,1008.91
2023-07-14T10:39:50.036Z,1008.89
2023-07-14T10:40:50.028Z,1008.91
2023-07-14T10:41:50.109Z,1008.93
2023-07-14T10:42:50.052Z,1008.93
2023-07-14T10:43:50.007Z,1008.90
2023-07-14T10:44:49.991Z,1008.95
2023-07-14T10:45:49.978Z,1008.97
2023-07-14T10:46:49.997Z,1008.98
2023-07-14T10:47:50.012Z,1008.89
2023-07-14T10:48:49.930Z,1008.90
2023-07-14T10:49:49.930Z,1008.89
2023-07-14T10:50:49.909Z,1008.78
2023-07-14T10:51:49.976Z,1008.85
2023-07-14T10:52:49.899Z,1008.77
2023-07-14T10:53:49.898Z,1008.74
2023-07-14T10:54:49.894Z,1008.77
2023-07-14T10:55:49.882Z,1008.76
2023-07-14T10:56:49.882Z,1008.75
2023-07-14T10:57:49.836Z,1008.66
2023-07-14T10:58:49.856Z,1008.71
2023-07-14T10:59:49.821Z,1008.64
2023-07-14T11:00:49.798Z,1008.60
2023-07-14T11:01:49.842Z,1008.61
2023-07-14T11:02:49.876Z,1008.71
2023-07-14T11:03:49.833Z,1008.66
2023-07-14T11:04:49.875Z,1008.63
2023-07-14T11:05:49.754Z,1008.51
2023-07-14T11:06:49.739Z,1008.53
2023-07-14T11:07:49.736Z,1008.41
2023-07-14T11:08:49.714Z,1008.43
2023-07-14T11:09:49.725Z,1008.41
2023-07-14T11:10:49.699Z,1008.35
2023-07-14T11:11:49.706Z,1008.33
2023-07-14T11:12:51.835Z,1008.30
2023-07-14T11:13:49.697Z,1008.28
2023-07-14T11:14:49.725Z,1008.30
2023-07-14T11:15:49.649Z,1008.26
2023-07-14T11:16:49.682Z,1008.35
2023-07-14T11:17:49.701Z,1008.30
2023-07-14T11:18:49.643Z,1008.29
2023-07-14T11:19:49.623Z,1008.21
2023-07-14T11:20:49.608Z,1008.24
2023-07-14T11:21:49.609Z,1008.23
2023-07-14T11:22:49.614Z,1008.10
2023-07-14T11:23:49.597Z,1008.10
2023-07-14T11:24:49.540Z,1008.07
2023-07-14T11:25:49.544Z,1008.05
2023-07-14T11:26:49.743Z,1008.04
2023-07-14T11:27:49.505Z,1008.03
2023-07-14T11:28:51.206Z,1008.02
2023-07-14T11:29:49.484Z,1007.97
2023-07-14T11:30:49.503Z,1007.92
2023-07-14T11:31:49.547Z,1007.86
2023-07-14T11:32:49.478Z,1007.86
2023-07-14T11:33:49.458Z,1007.84
2023-07-14T11:34:49.454Z,1007.82
2023-07-14T11:35:49.419Z,1007.88
2023-07-14T11:36:49.427Z,1007.79
2023-07-14T11:37:49.413Z,1007.79
2023-07-14T11:38:49.398Z,1007.76
2023-07-14T11:39:49.531Z,1007.73
2023-07-14T11:40:49.371Z,1007.82
2023-07-14T11:41:49.369Z,1007.86
2023-07-14T11:42:49.355Z,1007.86
2023-07-14T11:43:49.334Z,1007.76
2023-07-14T11:44:49.325Z,1007.77
2023-07-14T11:45:49.382Z,1007.78
2023-07-14T11:46:49.358Z,1007.74
2023-07-14T11:47:49.341Z,1007.70
2023-07-14T11:48:49.276Z,1007.68
2023-07-14T11:49:49.277Z,1007.69
2023-07-14T11:50:49.272Z,1007.75
2023-07-14T11:51:49.253Z,1007.72
2023-07-14T11:52:49.257Z,1007.74
2023-07-14T11:53:49.233Z,1007.75
2023-07-14T11:54:49.220Z,1007.74
2023-07-14T11:55:49.216Z,1007.89
2023-07-14T11:56:52.257Z,1007.95
2023-07-14T11:57:49.205Z,1007.78
2023-07-14T11:58:49.176Z,1007.78
2023-07-14T11:59:49.166Z,1007.80
2023-07-14T12:00:49.147Z,1007.81
2023-07-14T12:01:49.207Z,1007.76
2023-07-14T12:02:52.721Z,1007.69
2023-07-14T12:03:49.218Z,1007.64
2023-07-14T12:04:49.146Z,1007.60
2023-07-14T12:05:49.109Z,1007.59
2023-07-14T12:06:49.112Z,1007.52